createdAt,value
2023-05-12T00:02:11.618Z,55.54
2023-05-12T00:04:40.288Z,55.55
2023-05-12T00:07:07.365Z,55.14
2023-05-12T00:09:33.758Z,55.51
2023-05-12T00:12:00.142Z,55.79
2023-05-12T00:14:26.537Z,55.73
2023-05-12T00:16:53.066Z,56.47
2023-05-12T00:19:20.034Z,55.41
2023-05-12T00:21:46.636Z,55.75
2023-05-12T00:24:14.223Z,55.58
2023-05-12T00:26:40.572Z,55.43
2023-05-12T00:29:06.969Z,54.93
2023-05-12T00:31:33.288Z,54.73
2023-05-12T00:33:59.719Z,54.62
2023-05-12T00:36:26.406Z,55.07
2023-05-12T00:38:52.728Z,55.72
2023-05-12T00:41:19.058Z,55.57
2023-05-12T00:43:45.518Z,54.88
2023-05-12T00:46:12.521Z,55.02
2023-05-12T00:48:38.895Z,55.09
2023-05-12T00:51:06.157Z,55.47
2023-05-12T00:53:41.356Z,55.83
2023-05-12T00:56:16.813Z,55.33
2023-05-12T00:58:43.243Z,55.63
2023-05-12T01:01:09.664Z,55.88
2023-05-12T01:03:36.140Z,55.81
2023-05-12T01:06:08.305Z,56.23
2023-05-12T01:08:34.842Z,56.11
2023-05-12T01:11:01.220Z,55.54
2023-05-12T01:13:27.697Z,56.63
2023-05-12T01:15:54.020Z,55.79
2023-05-12T01:18:20.625Z,56.47
2023-05-12T01:20:47.118Z,56.18
2023-05-12T01:23:13.547Z,57.08
2023-05-12T01:25:39.910Z,57.03
2023-05-12T01:28:06.250Z,57.20
2023-05-12T01:30:32.575Z,56.98
2023-05-12T01:32:58.943Z,56.90
2023-05-12T01:35:25.340Z,56.67
2023-05-12T01:37:51.990Z,56.51
2023-05-12T01:40:18.563Z,56.97
2023-05-12T01:42:45.635Z,57.08
2023-05-12T01:45:12.087Z,56.77
2023-05-12T01:47:38.580Z,57.09
2023-05-12T01:50:05.142Z,57.80
2023-05-12T01:52:31.551Z,57.72
2023-05-12T01:54:57.933Z,57.93
2023-05-12T01:57:24.258Z,57.31
2023-05-12T01:59:50.572Z,57.61
2023-05-12T02:02:17.019Z,58.38
2023-05-12T02:04:43.457Z,58.11
2023-05-12T02:07:10.452Z,58.41
2023-05-12T02:09:36.828Z,58.10
2023-05-12T02:12:04.270Z,58.57
2023-05-12T02:14:30.631Z,59.56
2023-05-12T02:16:56.985Z,58.73
2023-05-12T02:19:23.319Z,59.25
2023-05-12T02:21:49.690Z,58.61
2023-05-12T02:24:18.902Z,58.98
2023-05-12T02:26:45.254Z,58.10
2023-05-12T02:29:12.054Z,58.63
2023-05-12T02:31:38.489Z,58.84
2023-05-12T02:34:06.650Z,59.05
2023-05-12T02:36:33.179Z,58.31
2023-05-12T02:38:59.523Z,59.15
2023-05-12T02:41:25.832Z,59.14
2023-05-12T02:43:52.176Z,59.13
2023-05-12T02:46:20.915Z,59.37
2023-05-12T02:48:47.336Z,58.81
2023-05-12T02:51:13.738Z,58.71
2023-05-12T02:53:40.385Z,59.10
2023-05-12T02:56:06.897Z,57.83
2023-05-12T02:58:33.795Z,58.51
2023-05-12T03:01:10.134Z,58.84
2023-05-12T03:03:38.088Z,58.80
2023-05-12T03:06:04.964Z,59.46
2023-05-12T03:08:31.394Z,58.92
2023-05-12T03:10:57.821Z,59.21
2023-05-12T03:13:24.198Z,59.23
2023-05-12T03:15:50.521Z,58.77
2023-05-12T03:18:16.871Z,58.62
2023-05-12T03:20:43.435Z,58.78
2023-05-12T03:23:10.437Z,58.40
2023-05-12T03:25:36.877Z,59.05
2023-05-12T03:28:03.649Z,58.75
2023-05-12T03:30:30.133Z,58.96
2023-05-12T03:32:56.505Z,58.92
2023-05-12T03:35:23.047Z,59.55
2023-05-12T03:37:49.818Z,58.49
2023-05-12T03:40:18.662Z,58.65
2023-05-12T03:42:45.821Z,58.96
2023-05-12T03:45:12.665Z,58.76
2023-05-12T03:47:40.557Z,59.20
2023-05-12T03:50:08.000Z,58.91
2023-05-12T03:52:34.428Z,59.51
2023-05-12T03:55:00.776Z,58.44
2023-05-12T03:57:27.445Z,58.12
2023-05-12T03:59:53.797Z,58.92
2023-05-12T04:02:20.372Z,58.91
2023-05-12T04:04:46.760Z,58.61
2023-05-12T04:07:13.321Z,59.46
2023-05-12T04:09:39.755Z,58.73
2023-05-12T04:12:06.264Z,58.00
2023-05-12T04:14:42.251Z,58.17
2023-05-12T04:17:09.758Z,57.44
2023-05-12T04:19:36.188Z,59.07
2023-05-12T04:22:02.495Z,57.58
2023-05-12T04:24:28.886Z,56.04
2023-05-12T04:26:55.252Z,55.34
2023-05-12T04:29:21.600Z,55.26
2023-05-12T04:31:48.027Z,54.09
2023-05-12T04:34:14.616Z,54.88
2023-05-12T04:36:41.072Z,54.64
2023-05-12T04:39:07.447Z,54.40
2023-05-12T04:41:34.003Z,55.93
2023-05-12T04:44:00.888Z,54.47
2023-05-12T04:46:33.116Z,54.68
2023-05-12T04:48:59.816Z,53.25
2023-05-12T04:51:26.264Z,51.54
2023-05-12T04:53:52.751Z,51.44
2023-05-12T04:56:23.504Z,51.05
2023-05-12T04:58:49.943Z,51.36
2023-05-12T05:01:16.433Z,50.96
2023-05-12T05:03:42.898Z,51.07
2023-05-12T05:06:09.369Z,50.70
2023-05-12T05:08:35.791Z,50.90
2023-05-12T05:11:02.208Z,50.74
2023-05-12T05:13:28.571Z,50.58
2023-05-12T05:15:55.633Z,50.77
2023-05-12T05:18:24.190Z,50.58
2023-05-12T05:20:57.856Z,50.34
2023-05-12T05:23:25.921Z,50.10
2023-05-12T05:25:52.453Z,49.93
2023-05-12T05:28:18.766Z,49.02
2023-05-12T05:30:45.135Z,48.22
2023-05-12T05:33:13.051Z,47.69
2023-05-12T05:35:39.450Z,47.88
2023-05-12T05:38:06.349Z,47.49
2023-05-12T05:40:44.828Z,48.14
2023-05-12T05:43:18.341Z,46.54
2023-05-12T05:45:44.685Z,47.01
2023-05-12T05:48:11.174Z,46.10
2023-05-12T05:50:37.972Z,45.86
2023-05-12T05:53:04.309Z,46.48
2023-05-12T05:55:30.629Z,46.77
2023-05-12T05:57:57.056Z,46.18
2023-05-12T06:00:23.424Z,45.79
2023-05-12T06:02:49.965Z,45.81
2023-05-12T06:05:16.683Z,44.88
2023-05-12T06:07:43.196Z,45.55
2023-05-12T06:10:09.544Z,45.52
2023-05-12T06:12:35.929Z,45.04
2023-05-12T06:15:02.326Z,44.23
2023-05-12T06:17:30.280Z,43.08
2023-05-12T06:19:57.681Z,43.05
2023-05-12T06:22:24.978Z,42.95
2023-05-12T06:24:51.348Z,41.95
2023-05-12T06:27:17.702Z,41.88
2023-05-12T06:29:44.086Z,42.47
2023-05-12T06:32:10.540Z,41.61
2023-05-12T06:34:38.400Z,41.21
2023-05-12T06:37:04.812Z,41.24
2023-05-12T06:39:31.150Z,39.93
2023-05-12T06:41:57.531Z,40.43
2023-05-12T06:44:24.032Z,39.57
2023-05-12T06:46:50.370Z,40.56
2023-05-12T06:49:16.735Z,39.91
2023-05-12T06:51:43.307Z,40.04
2023-05-12T06:54:09.674Z,39.40
2023-05-12T06:56:36.110Z,40.11
2023-05-12T06:59:03.585Z,39.80
2023-05-12T07:01:30.357Z,37.94
2023-05-12T07:03:57.297Z,38.85
2023-05-12T07:06:24.137Z,37.96
2023-05-12T07:08:50.545Z,39.21
2023-05-12T07:11:22.964Z,39.21
2023-05-12T07:13:50.075Z,39.16
2023-05-12T07:16:16.687Z,38.30
2023-05-12T07:18:43.443Z,37.63
2023-05-12T07:21:10.146Z,38.08
2023-05-12T07:23:36.715Z,38.06
2023-05-12T07:26:04.014Z,36.78
2023-05-12T07:28:36.105Z,37.58
2023-05-12T07:31:07.238Z,38.38
2023-05-12T07:33:34.696Z,37.98
2023-05-12T07:36:01.325Z,37.79
2023-05-12T07:38:27.715Z,37.26
2023-05-12T07:40:54.039Z,37.33
2023-05-12T07:43:20.885Z,37.30
2023-05-12T07:45:49.692Z,36.00
2023-05-12T07:48:16.078Z,35.46
2023-05-12T07:50:42.501Z,37.11
2023-05-12T07:53:08.911Z,36.87
2023-05-12T07:55:35.282Z,36.33
2023-05-12T07:58:01.971Z,36.72
2023-05-12T08:00:28.649Z,36.23
2023-05-12T08:02:55.509Z,36.66
2023-05-12T08:05:22.325Z,35.03
2023-05-12T08:07:48.842Z,34.17
2023-05-12T08:10:15.189Z,33.78
2023-05-12T08:12:41.717Z,34.66
2023-05-12T08:15:08.633Z,33.92
2023-05-12T08:17:35.094Z,33.26
2023-05-12T08:20:04.299Z,34.25
2023-05-12T08:22:31.017Z,33.51
2023-05-12T08:24:57.376Z,32.81
2023-05-12T08:27:23.687Z,33.13
2023-05-12T08:29:50.120Z,31.73
2023-05-12T08:32:16.718Z,31.92
2023-05-12T08:34:43.044Z,30.94
2023-05-12T08:37:09.415Z,31.02
2023-05-12T08:39:35.743Z,30.87
2023-05-12T08:42:17.506Z,30.14
2023-05-12T08:44:43.863Z,31.78
2023-05-12T08:47:10.264Z,31.37
2023-05-12T08:49:36.685Z,31.30
2023-05-12T08:52:03.152Z,30.48
2023-05-12T08:54:29.630Z,29.78
2023-05-12T08:59:28.590Z,29.34
2023-05-12T09:01:55.116Z,29.76
2023-05-12T09:04:21.585Z,28.68
2023-05-12T09:06:48.009Z,29.91
2023-05-12T09:09:16.000Z,30.20
2023-05-12T09:11:42.489Z,30.47
2023-05-12T09:14:09.766Z,29.06
2023-05-12T09:16:46.576Z,29.37
2023-05-12T09:19:13.272Z,30.09
2023-05-12T09:21:40.209Z,29.09
2023-05-12T09:24:10.220Z,26.40
2023-05-12T09:26:47.324Z,29.77
2023-05-12T09:29:20.769Z,30.72
2023-05-12T09:31:55.389Z,29.39
2023-05-12T09:34:29.054Z,29.86
2023-05-12T09:36:56.301Z,29.85
2023-05-12T09:39:22.673Z,28.13
2023-05-12T09:41:50.296Z,27.05
2023-05-12T09:44:16.920Z,28.25
2023-05-12T09:46:43.344Z,29.59
2023-05-12T09:49:09.745Z,27.81
2023-05-12T09:51:36.437Z,27.33
2023-05-12T09:54:03.325Z,28.54
2023-05-12T09:56:32.268Z,28.81
2023-05-12T09:58:58.749Z,29.18
2023-05-12T10:01:25.636Z,28.54
2023-05-12T10:03:53.071Z,29.09
2023-05-12T10:06:21.082Z,27.59
2023-05-12T10:08:49.839Z,27.71
2023-05-12T10:11:16.332Z,27.94
2023-05-12T10:13:43.075Z,25.85
2023-05-12T10:16:09.598Z,26.87
2023-05-12T10:18:36.476Z,27.19
2023-05-12T10:21:03.107Z,26.75
2023-05-12T10:23:29.563Z,26.65
2023-05-12T10:26:01.995Z,27.90
2023-05-12T10:28:28.953Z,27.78
2023-05-12T10:30:55.578Z,28.05
2023-05-12T10:33:22.090Z,26.79
2023-05-12T10:35:49.634Z,28.21
2023-05-12T10:38:22.262Z,28.51
2023-05-12T10:40:54.677Z,27.36
2023-05-12T10:43:21.749Z,27.22
2023-05-12T10:45:48.145Z,28.18
2023-05-12T10:48:15.411Z,26.42
2023-05-12T10:50:53.368Z,27.84
2023-05-12T10:53:32.638Z,26.91
2023-05-12T10:56:09.030Z,26.59
2023-05-12T10:58:36.010Z,26.22
2023-05-12T11:01:05.164Z,26.15
2023-05-12T11:03:34.812Z,25.47
2023-05-12T11:06:05.761Z,26.67
2023-05-12T11:08:35.984Z,25.70
2023-05-12T11:11:03.277Z,26.08
2023-05-12T11:13:29.856Z,25.44
2023-05-12T11:15:59.180Z,24.62
2023-05-12T11:18:25.763Z,24.02
2023-05-12T11:20:52.132Z,24.17
2023-05-12T11:23:29.077Z,24.70
2023-05-12T11:25:56.177Z,23.98
2023-05-12T11:28:23.033Z,24.00
2023-05-12T11:30:55.025Z,24.06
2023-05-12T11:33:22.346Z,22.80
2023-05-12T11:35:49.197Z,22.72
2023-05-12T11:38:17.116Z,22.76
2023-05-12T11:40:43.850Z,22.34
2023-05-12T11:43:10.681Z,22.78
2023-05-12T11:45:37.280Z,21.35
2023-05-12T11:48:07.198Z,22.83
2023-05-12T11:50:33.664Z,21.54
2023-05-12T11:53:00.055Z,22.02
2023-05-12T11:55:26.500Z,21.76
2023-05-12T11:58:04.075Z,22.00
2023-05-12T12:00:32.664Z,20.76
2023-05-12T12:03:26.219Z,21.76
2023-05-12T12:06:00.036Z,21.98
2023-05-12T12:08:26.425Z,21.43
2023-05-12T12:10:52.787Z,22.75
2023-05-12T12:13:26.045Z,22.09
2023-05-12T12:15:52.657Z,21.74
2023-05-12T12:18:19.416Z,21.61
2023-05-12T12:20:48.818Z,20.94
2023-05-12T12:23:15.429Z,21.51
2023-05-12T12:25:41.838Z,21.94
2023-05-12T12:28:08.344Z,21.85
2023-05-12T12:30:34.771Z,20.94
2023-05-12T12:33:01.418Z,22.18
2023-05-12T12:35:27.811Z,22.39
2023-05-12T12:37:54.425Z,22.53
2023-05-12T12:40:20.872Z,22.67
2023-05-12T12:42:47.317Z,22.73
2023-05-12T12:45:14.252Z,22.26
2023-05-12T12:47:40.728Z,22.59
2023-05-12T12:50:07.818Z,22.73
2023-05-12T12:52:34.260Z,22.76
2023-05-12T12:55:00.641Z,22.36
2023-05-12T12:57:27.284Z,22.37
2023-05-12T12:59:53.940Z,22.86
2023-05-12T13:02:20.341Z,22.27
2023-05-12T13:04:46.823Z,23.07
2023-05-12T13:07:13.346Z,23.90
2023-05-12T13:09:39.696Z,23.40
2023-05-12T13:12:06.353Z,23.00
2023-05-12T13:14:32.840Z,22.52
2023-05-12T13:16:59.349Z,22.42
2023-05-12T13:19:25.787Z,22.72
2023-05-12T13:21:52.225Z,22.03
2023-05-12T13:24:18.592Z,22.42
2023-05-12T13:26:44.970Z,23.16
2023-05-12T13:29:11.591Z,23.16
2023-05-12T13:31:38.694Z,23.67
2023-05-12T13:34:05.181Z,22.96
2023-05-12T13:36:33.761Z,21.86
2023-05-12T13:39:00.511Z,22.32
2023-05-12T13:41:26.881Z,22.98
2023-05-12T13:43:53.304Z,22.27
2023-05-12T13:46:19.757Z,22.88
2023-05-12T13:48:47.004Z,22.46
2023-05-12T13:51:13.599Z,21.74
2023-05-12T13:53:40.068Z,22.46
2023-05-12T13:56:07.254Z,23.22
2023-05-12T13:58:33.712Z,23.08
2023-05-12T14:01:00.283Z,22.59
2023-05-12T14:03:26.799Z,22.66
2023-05-12T14:05:53.206Z,23.38
2023-05-12T14:08:19.583Z,23.41
2023-05-12T14:10:45.976Z,23.97
2023-05-12T14:13:13.793Z,23.50
2023-05-12T14:15:48.505Z,22.74
2023-05-12T14:18:16.092Z,22.73
2023-05-12T14:20:42.490Z,22.97
2023-05-12T14:23:08.843Z,23.78
2023-05-12T14:25:35.344Z,23.52
2023-05-12T14:28:01.887Z,22.97
2023-05-12T14:30:28.379Z,23.15
2023-05-12T14:32:55.315Z,22.87
2023-05-12T14:35:22.416Z,22.85
2023-05-12T14:37:49.172Z,23.44
2023-05-12T14:40:15.699Z,22.58
2023-05-12T14:42:42.357Z,22.90
2023-05-12T14:45:09.328Z,23.07
2023-05-12T14:47:36.559Z,23.13
2023-05-12T14:50:03.510Z,22.69
2023-05-12T14:52:31.087Z,21.99
2023-05-12T14:54:57.630Z,22.26
2023-05-12T14:57:24.611Z,23.99
2023-05-12T15:00:18.848Z,26.24
2023-05-12T15:02:50.137Z,27.14
2023-05-12T15:05:16.674Z,24.98
2023-05-12T15:07:44.630Z,24.03
2023-05-12T15:10:11.219Z,26.67
2023-05-12T15:12:37.980Z,27.16
2023-05-12T15:15:05.352Z,27.76
2023-05-12T15:17:31.846Z,27.56
2023-05-12T15:19:58.424Z,27.66
2023-05-12T15:22:24.797Z,28.04
2023-05-12T15:24:51.107Z,28.06
2023-05-12T15:27:17.542Z,28.19
2023-05-12T15:29:43.939Z,28.66
2023-05-12T15:32:10.329Z,27.76
2023-05-12T15:34:36.798Z,28.63
2023-05-12T15:37:03.633Z,28.84
2023-05-12T15:39:29.962Z,28.48
2023-05-12T15:41:56.499Z,28.63
2023-05-12T15:44:22.868Z,28.48
2023-05-12T15:46:49.277Z,28.52
2023-05-12T15:49:15.680Z,29.23
2023-05-12T15:51:42.107Z,29.95
2023-05-12T15:54:09.492Z,30.15
2023-05-12T15:56:36.530Z,29.99
2023-05-12T15:59:02.969Z,29.63
2023-05-12T16:01:29.368Z,29.64
2023-05-12T16:03:55.963Z,30.19
2023-05-12T16:06:22.335Z,30.60
2023-05-12T16:08:48.687Z,31.19
2023-05-12T16:11:15.049Z,30.98
2023-05-12T16:13:41.703Z,30.86
2023-05-12T16:16:08.213Z,31.20
2023-05-12T16:18:34.783Z,31.15
2023-05-12T16:21:01.983Z,31.75
2023-05-12T16:23:28.455Z,31.98
2023-05-12T16:25:54.838Z,32.59
2023-05-12T16:28:21.658Z,32.84
2023-05-12T16:30:48.090Z,33.20
2023-05-12T16:33:14.514Z,33.68
2023-05-12T16:35:41.015Z,33.60
2023-05-12T16:38:07.365Z,33.69
2023-05-12T16:40:35.596Z,33.70
2023-05-12T16:43:02.028Z,33.81
2023-05-12T16:45:28.404Z,34.15
2023-05-12T16:47:54.981Z,34.87
2023-05-12T16:50:21.800Z,35.45
2023-05-12T16:52:48.129Z,35.13
2023-05-12T16:55:14.560Z,35.49
2023-05-12T16:57:42.750Z,35.58
2023-05-12T17:00:10.559Z,36.82
2023-05-12T17:02:37.067Z,36.59
2023-05-12T17:05:03.521Z,36.98
2023-05-12T17:07:31.020Z,35.64
2023-05-12T17:09:57.510Z,35.63
2023-05-12T17:12:23.894Z,35.94
2023-05-12T17:14:59.699Z,36.30
2023-05-12T17:17:33.188Z,36.22
2023-05-12T17:20:00.485Z,36.41
2023-05-12T17:22:27.965Z,36.55
2023-05-12T17:24:54.343Z,36.50
2023-05-12T17:27:20.722Z,36.64
2023-05-12T17:29:47.078Z,37.24
2023-05-12T17:32:13.454Z,37.72
2023-05-12T17:34:39.835Z,38.09
2023-05-12T17:37:06.270Z,38.58
2023-05-12T17:39:33.276Z,38.64
2023-05-12T17:42:00.474Z,38.77
2023-05-12T17:44:26.900Z,38.96
2023-05-12T17:46:53.582Z,38.76
2023-05-12T17:49:19.976Z,39.13
2023-05-12T17:51:46.903Z,39.31
2023-05-12T17:54:13.538Z,39.64
2023-05-12T17:56:40.073Z,39.99
2023-05-12T17:59:08.694Z,40.46
2023-05-12T18:01:35.231Z,40.36
2023-05-12T18:04:03.516Z,40.53
2023-05-12T18:06:31.151Z,41.31
2023-05-12T18:08:57.692Z,41.63
2023-05-12T18:11:24.042Z,41.63
2023-05-12T18:13:53.684Z,41.81
2023-05-12T18:16:28.510Z,42.22
2023-05-12T18:18:55.974Z,42.45
2023-05-12T18:21:22.629Z,42.46
2023-05-12T18:23:48.979Z,42.16
2023-05-12T18:26:15.294Z,42.05
2023-05-12T18:28:41.893Z,43.08
2023-05-12T18:31:15.967Z,43.77
2023-05-12T18:33:42.874Z,43.77
2023-05-12T18:36:10.109Z,43.07
2023-05-12T18:38:36.438Z,43.45
2023-05-12T18:41:02.847Z,43.02
2023-05-12T18:43:29.273Z,43.75
2023-05-12T18:45:55.882Z,44.26
2023-05-12T18:48:22.247Z,44.79
2023-05-12T18:50:48.654Z,44.99
2023-05-12T18:53:15.027Z,44.75
2023-05-12T18:55:41.534Z,45.19
2023-05-12T18:58:07.939Z,46.06
2023-05-12T19:00:35.512Z,46.49
2023-05-12T19:03:04.718Z,47.23
2023-05-12T19:05:31.229Z,46.74
2023-05-12T19:07:57.593Z,47.49
2023-05-12T19:10:24.002Z,47.14
2023-05-12T19:12:51.001Z,47.68
2023-05-12T19:15:17.771Z,47.64
2023-05-12T19:17:44.289Z,48.07
2023-05-12T19:20:10.773Z,48.50
2023-05-12T19:22:37.166Z,48.92
2023-05-12T19:25:04.280Z,49.40
2023-05-12T19:27:30.679Z,49.21
2023-05-12T19:29:57.448Z,49.23
2023-05-12T19:32:23.901Z,49.09
2023-05-12T19:34:53.072Z,50.58
2023-05-12T19:37:19.521Z,50.13
2023-05-12T19:39:46.265Z,49.31
2023-05-12T19:42:12.607Z,50.31
2023-05-12T19:44:38.962Z,50.34
2023-05-12T19:47:05.829Z,51.34
2023-05-12T19:49:33.591Z,51.55
2023-05-12T19:52:00.231Z,50.78
2023-05-12T19:54:26.699Z,51.30
2023-05-12T19:56:53.022Z,50.36
2023-05-12T19:59:19.367Z,51.52
2023-05-12T20:01:45.985Z,51.80
2023-05-12T20:04:12.476Z,52.83
2023-05-12T20:06:39.052Z,52.78
2023-05-12T20:09:05.964Z,52.37
2023-05-12T20:11:32.359Z,52.20
2023-05-12T20:13:58.672Z,52.15
2023-05-12T20:16:25.266Z,52.88
2023-05-12T20:18:51.985Z,52.10
2023-05-12T20:21:18.445Z,52.42
2023-05-12T20:23:44.796Z,52.55
2023-05-12T20:26:11.828Z,52.91
2023-05-12T20:28:38.522Z,53.07
2023-05-12T20:31:05.021Z,52.29
2023-05-12T20:33:32.225Z,53.66
2023-05-12T20:35:58.705Z,53.98
2023-05-12T20:38:25.392Z,53.42
2023-05-12T20:40:52.111Z,54.85
2023-05-12T20:43:18.826Z,54.51
2023-05-12T20:45:45.195Z,54.37
2023-05-12T20:48:11.660Z,54.71
2023-05-12T20:50:38.369Z,54.27
2023-05-12T20:53:04.979Z,54.17
2023-05-12T20:55:34.310Z,54.41
2023-05-12T20:58:00.813Z,54.14
2023-05-12T21:00:27.209Z,54.38
2023-05-12T21:02:53.771Z,53.96
2023-05-12T21:05:20.858Z,54.08
2023-05-12T21:07:47.648Z,54.38
2023-05-12T21:10:14.018Z,55.01
2023-05-12T21:12:40.438Z,55.22
2023-05-12T21:15:09.247Z,55.63
2023-05-12T21:17:35.747Z,55.48
2023-05-12T21:20:02.110Z,55.99
2023-05-12T21:22:28.573Z,57.01
2023-05-12T21:24:55.036Z,56.23
2023-05-12T21:27:21.510Z,57.01
2023-05-12T21:29:47.904Z,57.33
2023-05-12T21:32:14.556Z,57.78
2023-05-12T21:34:41.024Z,57.32
2023-05-12T21:37:07.511Z,56.95
2023-05-12T21:39:33.932Z,56.96
2023-05-12T21:42:00.777Z,56.60
2023-05-12T21:44:27.480Z,56.86
2023-05-12T21:46:53.840Z,56.92
2023-05-12T21:49:20.919Z,56.46
2023-05-12T21:51:47.300Z,57.18
2023-05-12T21:54:13.741Z,56.87
2023-05-12T21:56:40.096Z,57.32
2023-05-12T21:59:06.512Z,56.78
2023-05-12T22:01:32.880Z,56.56
2023-05-12T22:03:59.295Z,56.84
2023-05-12T22:06:26.145Z,56.99
2023-05-12T22:08:53.831Z,57.29
2023-05-12T22:11:21.151Z,57.01
2023-05-12T22:13:47.570Z,56.41
2023-05-12T22:16:13.946Z,56.36
2023-05-12T22:18:43.484Z,56.33
2023-05-12T22:21:10.376Z,56.17
2023-05-12T22:23:37.286Z,56.78
2023-05-12T22:26:03.930Z,57.45
2023-05-12T22:28:30.503Z,57.25
2023-05-12T22:30:57.522Z,56.63
2023-05-12T22:33:24.038Z,57.18
2023-05-12T22:35:50.905Z,57.46
2023-05-12T22:38:18.293Z,58.24
2023-05-12T22:40:44.709Z,58.69
2023-05-12T22:43:13.099Z,58.21
2023-05-12T22:45:39.526Z,57.89
2023-05-12T22:48:06.048Z,58.16
2023-05-12T22:50:32.540Z,58.25
2023-05-12T22:52:58.958Z,57.64
2023-05-12T22:55:31.015Z,58.32
2023-05-12T22:57:57.788Z,59.41
2023-05-12T23:00:24.179Z,58.43
2023-05-12T23:02:50.645Z,58.56
2023-05-12T23:05:17.021Z,58.64
2023-05-12T23:07:43.398Z,60.15
2023-05-12T23:10:09.840Z,58.76
2023-05-12T23:12:36.543Z,59.75
2023-05-12T23:15:03.818Z,59.44
2023-05-12T23:17:30.145Z,59.53
2023-05-12T23:19:56.685Z,60.18
2023-05-12T23:22:23.029Z,59.52
2023-05-12T23:24:49.337Z,59.25
2023-05-12T23:27:15.814Z,59.59
2023-05-12T23:29:42.217Z,59.47
2023-05-12T23:32:08.686Z,59.90
2023-05-12T23:34:36.305Z,60.89
2023-05-12T23:37:02.733Z,60.79
2023-05-12T23:39:29.080Z,59.95
2023-05-12T23:41:55.511Z,59.89
2023-05-12T23:44:21.832Z,59.94
2023-05-12T23:46:48.295Z,60.54
2023-05-12T23:49:14.810Z,60.83
2023-05-12T23:51:41.185Z,60.89
2023-05-12T23:54:07.520Z,60.31
2023-05-12T23:56:34.002Z,61.03
2023-05-12T23:59:00.352Z,61.48
